Gordon V.sr. — WDB8505 — position and weather

sailwx.info

Track history (hours):
 
Tides and Currents Weather Stations Pressure Air Temp Water Temp Dewpoint Dewpoint Depression Visibility Wind Speed Wind Dir Waves Ship Positions

Gordon V.sr.

Owner: B&G TOWING L.L.C., Lafitte, LA. More information available from US FCC via Universal Licensing System and Coast Guard Vessel Documentation Center.

Last reported at 2015-Mar-31 23:30 UTC. Time now 2015-Mar-31 23:52 UTC.
Position N 29°56' W 090°00'.

MMSI: 365910942.

Date/timePositionNaut miles runAvg speedWind from/ knotsBaromVisibWave heightAir tempDewpointWater temp
2015-Mar-31 23:30N 29°56' W 090°00'0 0.0
2015-Mar-31 19:23N 29°56' W 090°00'1 0.3
2015-Mar-31 17:32N 29°56' W 089°59'0 0.0
2015-Mar-31 16:33N 29°56' W 089°59'0 0.1
2015-Mar-31 15:23N 29°56' W 089°59'0 0.1
2015-Mar-31 14:31N 29°56' W 089°59'0 0.0
2015-Mar-31 13:23N 29°56' W 089°59'0 0.6
2015-Mar-31 12:32N 29°56' W 089°60'1 0.0
2015-Mar-30 19:05N 29°56' W 089°59'0 0.0
2015-Mar-30 18:23N 29°56' W 089°59'0 0.0
2015-Mar-30 16:27N 29°56' W 089°59'0 0.2
2015-Mar-30 15:28N 29°56' W 089°59'0 0.0
2015-Mar-30 14:31N 29°56' W 089°59'0 0.2
2015-Mar-30 13:32N 29°56' W 089°59'0 0.0
2015-Mar-30 12:33N 29°56' W 089°59'0 0.0
2015-Mar-29 22:10N 29°56' W 089°60'0 0.3
2015-Mar-29 21:26N 29°56' W 089°60'1 0.6
2015-Mar-29 20:32N 29°56' W 089°59'0 0.0
2015-Mar-29 19:10N 29°56' W 089°59'0 0.0
2015-Mar-29 18:33N 29°56' W 089°59'2 1.7
2015-Mar-29 17:33N 29°57' W 090°01'0 0.0
2015-Mar-29 16:31N 29°57' W 090°01'2 1.6
2015-Mar-29 15:29N 29°56' W 089°59'0 0.1
2015-Mar-29 14:32N 29°56' W 089°59'1 0.6
2015-Mar-29 13:28N 29°56' W 089°60'1 0.7
2015-Mar-29 12:31N 29°57' W 090°01'0 0.2
2015-Mar-29 11:32N 29°57' W 090°01'1 1.3
2015-Mar-29 10:28N 29°56' W 089°59'1 0.7
2015-Mar-29 09:30N 29°57' W 089°60'0 0.0
2015-Mar-29 08:31N 29°57' W 089°60'1 0.6
2015-Mar-29 07:33N 29°56' W 089°59'0 0.1
2015-Mar-29 06:27N 29°56' W 089°59'0 0.2
2015-Mar-29 05:31N 29°56' W 089°59'0 0.0
2015-Mar-29 04:32N 29°56' W 089°59'0 0.0
2015-Mar-29 03:30N 29°56' W 089°59'1 0.1
2015-Mar-28 17:30N 29°57' W 090°01'1 0.6
2015-Mar-28 15:17N 29°56' W 089°59'1 1.7
2015-Mar-28 14:28N 29°57' W 090°01'1 1.4
2015-Mar-28 13:30N 29°56' W 089°59'0 0.0
2015-Mar-28 01:26N 29°56' W 089°59'0 0.1
2015-Mar-27 23:23N 29°56' W 089°59'0 0.1
2015-Mar-27 22:09N 29°56' W 089°59'0 0.0
2015-Mar-27 21:21N 29°56' W 089°59'0 0.0
2015-Mar-27 20:33N 29°56' W 089°59'0 0.0
2015-Mar-27 19:29N 29°56' W 089°59'0 0.4
2015-Mar-27 18:32N 29°56' W 089°60'0 0.3
2015-Mar-27 17:26N 29°56' W 089°59'0 0.0
2015-Mar-27 16:22N 29°56' W 089°59'0 0.1
2015-Mar-27 15:32N 29°56' W 089°59'0 0.3
2015-Mar-27 14:33N 29°56' W 089°60'0 0.3
2015-Mar-27 13:33N 29°56' W 089°59'0 0.3
2015-Mar-27 12:33N 29°56' W 089°59'1 0.5
2015-Mar-27 11:32N 29°56' W 089°60'1 0.6
2015-Mar-27 10:25N 29°56' W 089°59'0 0.0
2015-Mar-27 09:32N 29°56' W 089°59'0 0.1
2015-Mar-27 08:33N 29°56' W 089°59'0 0.1
2015-Mar-27 07:28N 29°56' W 089°59'0 0.3
2015-Mar-27 06:18N 29°56' W 089°59'2 0.1
2015-Mar-26 12:18N 29°57' W 090°01'1 0.8
2015-Mar-26 10:28N 29°56' W 089°59'0 0.0
2015-Mar-26 09:05N 29°56' W 089°59'0 0.0
2015-Mar-26 08:28N 29°56' W 089°59'0 0.4
2015-Mar-26 07:27N 29°56' W 089°60'0 0.3
2015-Mar-26 06:33N 29°56' W 089°60'0 0.2
2015-Mar-26 05:09N 29°57' W 089°60'1 1.0
2015-Mar-26 04:27N 29°57' W 090°01'0 0.0
2015-Mar-26 03:30N 29°57' W 090°01'1 1.4
2015-Mar-26 02:28N 29°56' W 089°59'2 2.0
2015-Mar-26 01:33N 29°57' W 090°01'0 0.0
2015-Mar-26 00:33N 29°57' W 090°01'0 0.1
2015-Mar-25 23:33N 29°57' W 090°01'2 1.6
2015-Mar-25 22:33N 29°56' W 089°59'0 0.2
2015-Mar-25 21:33N 29°56' W 089°59'0 0.1
2015-Mar-25 20:32N 29°56' W 089°59'1 0.5
2015-Mar-25 19:29N 29°57' W 089°60'1 0.7
2015-Mar-25 18:30N 29°56' W 089°59'1 0.9
2015-Mar-25 17:33N 29°56' W 090°00'1 0.6
2015-Mar-25 16:33N 29°56' W 089°59'0 0.0
2015-Mar-25 15:31N 29°56' W 089°59'0 0.1
2015-Mar-25 14:33N 29°56' W 089°59'0 0.3
2015-Mar-25 13:32N 29°56' W 089°59'1 1.4
2015-Mar-25 12:32N 29°57' W 090°01'1 0.7
2015-Mar-25 11:33N 29°56' W 090°00'1 0.7
2015-Mar-25 10:33N 29°56' W 089°59'0 0.0
2015-Mar-25 09:33N 29°56' W 089°59'0 0.0
2015-Mar-25 08:31N 29°56' W 089°59'0 0.0
2015-Mar-25 07:28N 29°56' W 089°59'0 0.0
2015-Mar-25 06:29N 29°56' W 089°59'0 0.0
2015-Mar-25 05:30N 29°56' W 089°59'0 0.0
2015-Mar-25 04:10N 29°56' W 089°59'0 0.0
2015-Mar-24 11:22N 29°56' W 089°60'0 0.0
2015-Mar-23 16:20N 29°56' W 089°59'0 0.0
2015-Mar-23 15:25N 29°56' W 089°59'0 0.1
2015-Mar-23 14:28N 29°56' W 089°59'1 0.6
2015-Mar-23 12:18N 29°57' W 090°01'1 1.3
2015-Mar-23 11:18N 29°56' W 089°59'0 0.3
2015-Mar-23 10:30N 29°56' W 089°59'0 0.1
2015-Mar-23 09:27N 29°56' W 089°59'0 0.0
2015-Mar-23 08:32N 29°56' W 089°59'0 0.0
2015-Mar-23 07:25N 29°56' W 089°59'0 0.2
2015-Mar-23 06:21N 29°56' W 089°59'0 0.3
2015-Mar-23 05:33N 29°56' W 089°59'0 0.0
2015-Mar-23 04:33N 29°56' W 089°59'0 0.0
2015-Mar-23 03:32N 29°56' W 089°59'0 0.0
2015-Mar-23 02:33N 29°56' W 089°59'0 0.0
2015-Mar-23 01:33N 29°56' W 089°59'0 0.2
2015-Mar-23 00:30N 29°56' W 089°59'0 0.4
2015-Mar-22 23:28N 29°56' W 089°60'0 0.4
2015-Mar-22 22:33N 29°56' W 089°59'0 0.0
2015-Mar-22 21:33N 29°56' W 089°59'0 0.0
2015-Mar-22 20:33N 29°56' W 089°59'0 0.0
2015-Mar-22 19:33N 29°56' W 089°59'0 0.0
2015-Mar-22 18:32N 29°56' W 089°59'0 0.0
2015-Mar-22 17:29N 29°56' W 089°59'0 0.0
2015-Mar-22 16:29N 29°56' W 089°59'0 0.0
2015-Mar-22 15:33N 29°56' W 089°59'0 0.0
2015-Mar-22 14:32N 29°56' W 089°59'0 0.0
2015-Mar-22 13:33N 29°56' W 089°59'1 0.9
2015-Mar-22 12:03N 29°57' W 090°01'1 2.3
2015-Mar-22 11:32N 29°56' W 089°60'0 0.3
2015-Mar-22 10:32N 29°56' W 089°59'0 0.0
2015-Mar-22 09:33N 29°56' W 089°59'0 0.0
2015-Mar-22 08:33N 29°56' W 089°59'0 0.1
2015-Mar-22 07:33N 29°56' W 089°60'0 0.2
2015-Mar-22 06:24N 29°56' W 089°59'1 0.1
2015-Mar-22 00:33N 29°56' W 089°59'  
Track history (hours):
 
Tides and Currents Weather Stations Pressure Air Temp Water Temp Dewpoint Dewpoint Depression Visibility Wind Speed Wind Dir Waves Ship Positions

Gordon V.sr.

Owner: B&G TOWING L.L.C., Lafitte, LA. More information available from US FCC via Universal Licensing System and Coast Guard Vessel Documentation Center.

Last reported at 2015-Mar-31 23:30 UTC. Time now 2015-Mar-31 23:52 UTC.
Position N 29°56' W 090°00'.

MMSI: 365910942.

Date/timePositionNaut miles runAvg speedWind from/ knotsBaromVisibWave heightAir tempDewpointWater temp
2015-Mar-31 23:30N 29°56' W 090°00'0 0.0
2015-Mar-31 19:23N 29°56' W 090°00'1 0.3
2015-Mar-31 17:32N 29°56' W 089°59'0 0.0
2015-Mar-31 16:33N 29°56' W 089°59'0 0.1
2015-Mar-31 15:23N 29°56' W 089°59'0 0.1
2015-Mar-31 14:31N 29°56' W 089°59'0 0.0
2015-Mar-31 13:23N 29°56' W 089°59'0 0.6
2015-Mar-31 12:32N 29°56' W 089°60'1 0.0
2015-Mar-30 19:05N 29°56' W 089°59'0 0.0
2015-Mar-30 18:23N 29°56' W 089°59'0 0.0
2015-Mar-30 16:27N 29°56' W 089°59'0 0.2
2015-Mar-30 15:28N 29°56' W 089°59'0 0.0
2015-Mar-30 14:31N 29°56' W 089°59'0 0.2
2015-Mar-30 13:32N 29°56' W 089°59'0 0.0
2015-Mar-30 12:33N 29°56' W 089°59'0 0.0
2015-Mar-29 22:10N 29°56' W 089°60'0 0.3
2015-Mar-29 21:26N 29°56' W 089°60'1 0.6
2015-Mar-29 20:32N 29°56' W 089°59'0 0.0
2015-Mar-29 19:10N 29°56' W 089°59'0 0.0
2015-Mar-29 18:33N 29°56' W 089°59'2 1.7
2015-Mar-29 17:33N 29°57' W 090°01'0 0.0
2015-Mar-29 16:31N 29°57' W 090°01'2 1.6
2015-Mar-29 15:29N 29°56' W 089°59'0 0.1
2015-Mar-29 14:32N 29°56' W 089°59'1 0.6
2015-Mar-29 13:28N 29°56' W 089°60'1 0.7
2015-Mar-29 12:31N 29°57' W 090°01'0 0.2
2015-Mar-29 11:32N 29°57' W 090°01'1 1.3
2015-Mar-29 10:28N 29°56' W 089°59'1 0.7
2015-Mar-29 09:30N 29°57' W 089°60'0 0.0
2015-Mar-29 08:31N 29°57' W 089°60'1 0.6
2015-Mar-29 07:33N 29°56' W 089°59'0 0.1
2015-Mar-29 06:27N 29°56' W 089°59'0 0.2
2015-Mar-29 05:31N 29°56' W 089°59'0 0.0
2015-Mar-29 04:32N 29°56' W 089°59'0 0.0
2015-Mar-29 03:30N 29°56' W 089°59'1 0.1
2015-Mar-28 17:30N 29°57' W 090°01'1 0.6
2015-Mar-28 15:17N 29°56' W 089°59'1 1.7
2015-Mar-28 14:28N 29°57' W 090°01'1 1.4
2015-Mar-28 13:30N 29°56' W 089°59'0 0.0
2015-Mar-28 01:26N 29°56' W 089°59'0 0.1
2015-Mar-27 23:23N 29°56' W 089°59'0 0.1
2015-Mar-27 22:09N 29°56' W 089°59'0 0.0
2015-Mar-27 21:21N 29°56' W 089°59'0 0.0
2015-Mar-27 20:33N 29°56' W 089°59'0 0.0
2015-Mar-27 19:29N 29°56' W 089°59'0 0.4
2015-Mar-27 18:32N 29°56' W 089°60'0 0.3
2015-Mar-27 17:26N 29°56' W 089°59'0 0.0
2015-Mar-27 16:22N 29°56' W 089°59'0 0.1
2015-Mar-27 15:32N 29°56' W 089°59'0 0.3
2015-Mar-27 14:33N 29°56' W 089°60'0 0.3
2015-Mar-27 13:33N 29°56' W 089°59'0 0.3
2015-Mar-27 12:33N 29°56' W 089°59'1 0.5
2015-Mar-27 11:32N 29°56' W 089°60'1 0.6
2015-Mar-27 10:25N 29°56' W 089°59'0 0.0
2015-Mar-27 09:32N 29°56' W 089°59'0 0.1
2015-Mar-27 08:33N 29°56' W 089°59'0 0.1
2015-Mar-27 07:28N 29°56' W 089°59'0 0.3
2015-Mar-27 06:18N 29°56' W 089°59'2 0.1
2015-Mar-26 12:18N 29°57' W 090°01'1 0.8
2015-Mar-26 10:28N 29°56' W 089°59'0 0.0
2015-Mar-26 09:05N 29°56' W 089°59'0 0.0
2015-Mar-26 08:28N 29°56' W 089°59'0 0.4
2015-Mar-26 07:27N 29°56' W 089°60'0 0.3
2015-Mar-26 06:33N 29°56' W 089°60'0 0.2
2015-Mar-26 05:09N 29°57' W 089°60'1 1.0
2015-Mar-26 04:27N 29°57' W 090°01'0 0.0
2015-Mar-26 03:30N 29°57' W 090°01'1 1.4
2015-Mar-26 02:28N 29°56' W 089°59'2 2.0
2015-Mar-26 01:33N 29°57' W 090°01'0 0.0
2015-Mar-26 00:33N 29°57' W 090°01'0 0.1
2015-Mar-25 23:33N 29°57' W 090°01'2 1.6
2015-Mar-25 22:33N 29°56' W 089°59'0 0.2
2015-Mar-25 21:33N 29°56' W 089°59'0 0.1
2015-Mar-25 20:32N 29°56' W 089°59'1 0.5
2015-Mar-25 19:29N 29°57' W 089°60'1 0.7
2015-Mar-25 18:30N 29°56' W 089°59'1 0.9
2015-Mar-25 17:33N 29°56' W 090°00'1 0.6
2015-Mar-25 16:33N 29°56' W 089°59'0 0.0
2015-Mar-25 15:31N 29°56' W 089°59'0 0.1
2015-Mar-25 14:33N 29°56' W 089°59'0 0.3
2015-Mar-25 13:32N 29°56' W 089°59'1 1.4
2015-Mar-25 12:32N 29°57' W 090°01'1 0.7
2015-Mar-25 11:33N 29°56' W 090°00'1 0.7
2015-Mar-25 10:33N 29°56' W 089°59'0 0.0
2015-Mar-25 09:33N 29°56' W 089°59'0 0.0
2015-Mar-25 08:31N 29°56' W 089°59'0 0.0
2015-Mar-25 07:28N 29°56' W 089°59'0 0.0
2015-Mar-25 06:29N 29°56' W 089°59'0 0.0
2015-Mar-25 05:30N 29°56' W 089°59'0 0.0
2015-Mar-25 04:10N 29°56' W 089°59'0 0.0
2015-Mar-24 11:22N 29°56' W 089°60'0 0.0
2015-Mar-23 16:20N 29°56' W 089°59'0 0.0
2015-Mar-23 15:25N 29°56' W 089°59'0 0.1
2015-Mar-23 14:28N 29°56' W 089°59'1 0.6
2015-Mar-23 12:18N 29°57' W 090°01'1 1.3
2015-Mar-23 11:18N 29°56' W 089°59'0 0.3
2015-Mar-23 10:30N 29°56' W 089°59'0 0.1
2015-Mar-23 09:27N 29°56' W 089°59'0 0.0
2015-Mar-23 08:32N 29°56' W 089°59'0 0.0
2015-Mar-23 07:25N 29°56' W 089°59'0 0.2
2015-Mar-23 06:21N 29°56' W 089°59'0 0.3
2015-Mar-23 05:33N 29°56' W 089°59'0 0.0
2015-Mar-23 04:33N 29°56' W 089°59'0 0.0
2015-Mar-23 03:32N 29°56' W 089°59'0 0.0
2015-Mar-23 02:33N 29°56' W 089°59'0 0.0
2015-Mar-23 01:33N 29°56' W 089°59'0 0.2
2015-Mar-23 00:30N 29°56' W 089°59'0 0.4
2015-Mar-22 23:28N 29°56' W 089°60'0 0.4
2015-Mar-22 22:33N 29°56' W 089°59'0 0.0
2015-Mar-22 21:33N 29°56' W 089°59'0 0.0
2015-Mar-22 20:33N 29°56' W 089°59'0 0.0
2015-Mar-22 19:33N 29°56' W 089°59'0 0.0
2015-Mar-22 18:32N 29°56' W 089°59'0 0.0
2015-Mar-22 17:29N 29°56' W 089°59'0 0.0
2015-Mar-22 16:29N 29°56' W 089°59'0 0.0
2015-Mar-22 15:33N 29°56' W 089°59'0 0.0
2015-Mar-22 14:32N 29°56' W 089°59'0 0.0
2015-Mar-22 13:33N 29°56' W 089°59'1 0.9
2015-Mar-22 12:03N 29°57' W 090°01'1 2.3
2015-Mar-22 11:32N 29°56' W 089°60'0 0.3
2015-Mar-22 10:32N 29°56' W 089°59'0 0.0
2015-Mar-22 09:33N 29°56' W 089°59'0 0.0
2015-Mar-22 08:33N 29°56' W 089°59'0 0.1
2015-Mar-22 07:33N 29°56' W 089°60'0 0.2
2015-Mar-22 06:24N 29°56' W 089°59'1 0.1
2015-Mar-22 00:33N 29°56' W 089°59'  

Dump ship's entire track history